Time;durP1;ratioP1;P1;durP2;ratioP2;P2;SDS_P1;SDS_P2;PMS_P1;PMS_P2;Temp;Humidity;BMP_temperature;BMP_pressure;BME280_temperature;BME280_humidity;BME280_pressure;Samples;Min_cycle;Max_cycle;Signal;HPM_P1;HPM_P2
2023/08/15 00:01:01;;;;;;;10.65;4.07;;;20.80;99.90;;;;;;4999950;28;20045;-69
2023/08/15 00:03:26;;;;;;;7.53;3.90;;;20.80;99.90;;;;;;5000005;28;20023;-69
2023/08/15 00:05:52;;;;;;;7.05;3.80;;;20.90;99.90;;;;;;5000225;28;20019;-69
2023/08/15 00:08:17;;;;;;;7.93;3.70;;;20.90;99.90;;;;;;5000207;28;20089;-69
2023/08/15 00:10:43;;;;;;;13.80;4.78;;;20.90;99.90;;;;;;5000553;28;20096;-69
2023/08/15 00:13:08;;;;;;;11.38;4.57;;;20.90;99.90;;;;;;4999805;28;20019;-69
2023/08/15 00:15:35;;;;;;;8.07;4.00;;;20.90;99.90;;;;;;5000963;28;20027;-69
2023/08/15 00:18:00;;;;;;;8.93;4.45;;;20.90;99.90;;;;;;4999965;28;20096;-68
2023/08/15 00:20:26;;;;;;;15.65;4.10;;;20.80;99.90;;;;;;4999566;28;20027;-67
2023/08/15 00:22:51;;;;;;;10.05;4.30;;;20.70;99.90;;;;;;4999903;28;20023;-67
2023/08/15 00:25:17;;;;;;;10.27;3.63;;;20.70;99.90;;;;;;5000672;28;20033;-67
2023/08/15 00:27:43;;;;;;;7.68;3.83;;;20.70;99.90;;;;;;5000010;28;20022;-67
2023/08/15 00:30:08;;;;;;;7.63;4.13;;;20.70;99.90;;;;;;5000178;28;20030;-67
2023/08/15 00:32:35;;;;;;;7.55;3.92;;;20.70;99.90;;;;;;4999437;28;20030;-67
2023/08/15 00:35:04;;;;;;;14.90;4.03;;;20.70;99.90;;;;;;5000240;28;20023;-68
2023/08/15 00:37:31;;;;;;;10.38;4.72;;;20.70;99.90;;;;;;4999504;28;20031;-68
2023/08/15 00:39:57;;;;;;;7.20;4.35;;;20.70;99.90;;;;;;5000237;28;20026;-68
2023/08/15 00:42:22;;;;;;;8.40;4.20;;;20.70;99.90;;;;;;4999288;28;20027;-68
2023/08/15 00:44:48;;;;;;;11.35;4.50;;;20.70;99.90;;;;;;5000144;28;20037;-68
2023/08/15 00:47:13;;;;;;;9.52;4.22;;;20.70;99.90;;;;;;5000111;28;20050;-68
2023/08/15 00:49:41;;;;;;;7.78;4.90;;;20.60;99.90;;;;;;4999839;28;20030;-68
2023/08/15 00:52:07;;;;;;;6.00;3.42;;;20.60;99.90;;;;;;4999811;28;20082;-68
2023/08/15 00:54:34;;;;;;;8.00;3.92;;;20.60;99.90;;;;;;4999304;28;20165;-68
2023/08/15 00:57:04;;;;;;;10.35;3.80;;;20.60;99.90;;;;;;4999841;28;20022;-68
2023/08/15 00:59:29;;;;;;;12.65;4.22;;;20.60;99.90;;;;;;4999448;28;20058;-68
2023/08/15 01:01:55;;;;;;;7.45;4.25;;;20.60;99.90;;;;;;4999836;28;20128;-68
2023/08/15 01:04:21;;;;;;;11.57;4.40;;;20.50;99.90;;;;;;5000092;28;20077;-68
2023/08/15 01:06:48;;;;;;;8.93;4.13;;;20.50;99.90;;;;;;4998738;28;20022;-68
2023/08/15 01:09:14;;;;;;;7.95;4.65;;;20.50;99.90;;;;;;4998835;28;20037;-68
2023/08/15 01:11:55;;;;;;;6.97;4.38;;;20.50;99.90;;;;;;4999635;28;20030;-66
2023/08/15 01:14:28;;;;;;;13.15;4.50;;;20.50;99.90;;;;;;4999687;28;20022;-66
2023/08/15 01:16:55;;;;;;;7.43;3.88;;;20.50;99.90;;;;;;4998656;28;20034;-66
2023/08/15 01:19:24;;;;;;;10.82;4.97;;;20.50;99.90;;;;;;4999438;28;20081;-66
2023/08/15 01:21:53;;;;;;;8.93;4.20;;;20.50;99.90;;;;;;4999357;28;20027;-66
2023/08/15 01:24:19;;;;;;;11.63;4.43;;;20.50;99.90;;;;;;4998446;28;20025;-66
2023/08/15 01:26:45;;;;;;;8.85;4.38;;;20.50;99.90;;;;;;4999171;28;20022;-67
2023/08/15 01:29:10;;;;;;;10.68;4.05;;;20.50;99.90;;;;;;4998432;28;20084;-68
2023/08/15 01:31:46;;;;;;;12.45;4.45;;;20.50;99.90;;;;;;4999277;28;20034;-68
2023/08/15 01:34:23;;;;;;;12.73;3.92;;;20.40;99.90;;;;;;4999458;28;20026;-68
2023/08/15 01:36:54;;;;;;;10.70;4.35;;;20.40;99.90;;;;;;4998124;28;20030;-68
2023/08/15 01:39:27;;;;;;;10.75;4.32;;;20.20;99.90;;;;;;4998122;28;20027;-68
2023/08/15 01:41:56;;;;;;;6.65;3.95;;;20.20;99.90;;;;;;4999103;28;20030;-68
2023/08/15 01:44:22;;;;;;;8.52;4.60;;;20.20;99.90;;;;;;4998423;28;20054;-68
2023/08/15 01:46:48;;;;;;;11.00;4.40;;;20.20;99.90;;;;;;4998897;28;20030;-68
2023/08/15 01:49:14;;;;;;;10.32;4.32;;;20.20;99.90;;;;;;4998658;28;20049;-68
2023/08/15 01:51:40;;;;;;;7.45;3.85;;;20.20;99.90;;;;;;4999403;28;20109;-68
2023/08/15 01:54:05;;;;;;;9.98;3.83;;;20.10;99.90;;;;;;4997946;28;20117;-68
2023/08/15 01:56:31;;;;;;;6.20;4.32;;;20.20;99.90;;;;;;4998034;28;20026;-68
2023/08/15 01:58:57;;;;;;;6.95;3.70;;;20.20;99.90;;;;;;4998673;28;20030;-68
2023/08/15 02:01:23;;;;;;;7.40;3.55;;;20.20;99.90;;;;;;4997886;28;20022;-68
2023/08/15 02:03:49;;;;;;;7.55;3.60;;;20.20;99.90;;;;;;4997638;28;20030;-68
2023/08/15 02:06:14;;;;;;;8.75;4.28;;;20.20;99.90;;;;;;4998661;28;20037;-68
2023/08/15 02:08:40;;;;;;;6.38;4.20;;;20.20;99.90;;;;;;4998058;28;20113;-68
2023/08/15 02:11:05;;;;;;;7.05;4.03;;;20.20;99.90;;;;;;4997923;28;20023;-68
2023/08/15 02:13:33;;;;;;;9.27;4.25;;;20.20;99.90;;;;;;4998777;28;20073;-68
2023/08/15 02:15:59;;;;;;;13.07;4.30;;;20.20;99.90;;;;;;4998406;28;20026;-68
2023/08/15 02:18:32;;;;;;;12.38;4.68;;;20.30;99.90;;;;;;4997759;28;20062;-68
2023/08/15 02:20:57;;;;;;;6.20;4.80;;;20.30;99.90;;;;;;4997445;28;20100;-68
2023/08/15 02:23:23;;;;;;;10.80;4.63;;;20.20;99.90;;;;;;4998298;28;20031;-68
2023/08/15 02:25:49;;;;;;;12.90;4.78;;;20.20;99.90;;;;;;4997411;28;20022;-68
2023/08/15 02:28:14;;;;;;;6.25;4.65;;;20.20;99.90;;;;;;4997294;28;20027;-68
2023/08/15 02:30:40;;;;;;;6.45;3.97;;;20.20;99.90;;;;;;4997690;28;20122;-68
2023/08/15 02:33:06;;;;;;;10.98;5.25;;;20.20;99.90;;;;;;4997479;28;20022;-68
2023/08/15 02:35:32;;;;;;;10.95;4.45;;;20.20;99.90;;;;;;4998076;28;20081;-68
2023/08/15 02:37:58;;;;;;;20.58;5.30;;;20.10;99.90;;;;;;4998722;28;20035;-68
2023/08/15 02:40:25;;;;;;;8.15;4.05;;;20.20;99.90;;;;;;4998098;28;20028;-68
2023/08/15 02:42:51;;;;;;;7.28;3.90;;;20.20;99.90;;;;;;4997171;28;20113;-68
2023/08/15 02:45:16;;;;;;;9.05;4.13;;;20.20;99.90;;;;;;4998142;28;20060;-68
2023/08/15 02:47:42;;;;;;;14.10;4.18;;;20.20;99.90;;;;;;4997333;28;20026;-69
2023/08/15 02:50:08;;;;;;;13.75;5.13;;;20.10;99.90;;;;;;4997067;28;20031;-69
2023/08/15 02:52:33;;;;;;;8.80;4.68;;;20.20;99.90;;;;;;4996889;28;20030;-68
2023/08/15 02:54:59;;;;;;;9.23;5.05;;;20.20;99.90;;;;;;4997252;28;20045;-68
2023/08/15 02:57:24;;;;;;;11.68;5.75;;;20.20;99.90;;;;;;4996823;28;20030;-68
2023/08/15 02:59:50;;;;;;;9.07;4.78;;;20.10;99.90;;;;;;4996826;28;20053;-68
2023/08/15 03:02:16;;;;;;;12.55;4.68;;;20.10;99.90;;;;;;4997311;28;20024;-68
2023/08/15 03:04:42;;;;;;;7.95;4.32;;;20.10;99.90;;;;;;4996943;28;20022;-68
2023/08/15 03:07:07;;;;;;;6.05;4.38;;;20.00;99.90;;;;;;4996673;28;20065;-68
2023/08/15 03:09:33;;;;;;;9.30;4.85;;;20.20;99.90;;;;;;4997175;28;20030;-68
2023/08/15 03:11:58;;;;;;;7.05;4.25;;;20.20;99.90;;;;;;4996771;28;20118;-68
2023/08/15 03:14:27;;;;;;;10.70;4.57;;;20.20;99.90;;;;;;4996160;28;20030;-68
2023/08/15 03:16:52;;;;;;;7.80;4.40;;;20.20;99.90;;;;;;4996731;28;20061;-68
2023/08/15 03:19:18;;;;;;;11.18;5.05;;;20.30;99.90;;;;;;4997645;28;20069;-68
2023/08/15 03:21:44;;;;;;;9.15;4.25;;;20.50;99.90;;;;;;4997356;28;20027;-69
2023/08/15 03:24:09;;;;;;;13.05;5.10;;;20.60;99.90;;;;;;4997545;28;20065;-69
2023/08/15 03:26:35;;;;;;;9.43;4.53;;;20.80;99.90;;;;;;4997494;28;20033;-68
2023/08/15 03:29:01;;;;;;;7.28;4.43;;;20.90;99.90;;;;;;4997539;28;20029;-68
2023/08/15 03:31:27;;;;;;;7.47;4.28;;;21.00;99.90;;;;;;4996672;28;20057;-68
2023/08/15 03:33:52;;;;;;;12.82;4.60;;;21.10;99.90;;;;;;4997114;28;20054;-68
2023/08/15 03:36:18;;;;;;;11.05;5.22;;;21.00;99.90;;;;;;4996810;28;20049;-68
2023/08/15 03:38:43;;;;;;;11.75;4.97;;;20.80;99.90;;;;;;4996914;28;20099;-68
2023/08/15 03:41:09;;;;;;;12.70;5.25;;;20.60;99.90;;;;;;4996571;28;20034;-68
2023/08/15 03:43:35;;;;;;;9.65;4.82;;;20.60;99.90;;;;;;4996786;28;20018;-68
2023/08/15 03:46:02;;;;;;;7.97;5.20;;;20.70;99.90;;;;;;4996623;28;20077;-68
2023/08/15 03:48:31;;;;;;;10.98;5.18;;;20.80;99.90;;;;;;4996375;28;20026;-68
2023/08/15 03:50:57;;;;;;;12.73;4.68;;;20.90;99.90;;;;;;4996392;28;20026;-68
2023/08/15 03:53:23;;;;;;;8.45;4.75;;;21.00;99.90;;;;;;4996667;28;20121;-69
2023/08/15 03:55:49;;;;;;;14.60;5.93;;;21.00;99.90;;;;;;4996414;28;20066;-69
2023/08/15 03:58:19;;;;;;;7.72;5.38;;;20.90;99.90;;;;;;4996540;28;20034;-69
2023/08/15 04:00:45;;;;;;;11.85;4.78;;;20.80;99.90;;;;;;4997353;28;20089;-68
2023/08/15 04:03:11;;;;;;;11.80;4.97;;;20.90;99.90;;;;;;4997493;28;20030;-68
2023/08/15 04:05:37;;;;;;;9.63;5.47;;;20.80;99.90;;;;;;4996311;28;20072;-67
2023/08/15 04:08:02;;;;;;;13.48;5.65;;;20.60;99.90;;;;;;4996658;28;20026;-67
2023/08/15 04:10:28;;;;;;;14.02;5.10;;;20.30;99.90;;;;;;4997070;28;20104;-67
2023/08/15 04:12:55;;;;;;;11.52;6.13;;;20.10;99.90;;;;;;4996700;28;20022;-67
2023/08/15 04:15:20;;;;;;;9.43;5.57;;;20.10;99.90;;;;;;4997106;28;20027;-67
2023/08/15 04:17:46;;;;;;;12.25;5.82;;;20.20;99.90;;;;;;4996259;28;20022;-67
2023/08/15 04:20:12;;;;;;;15.13;6.50;;;20.20;99.90;;;;;;4996289;28;20038;-67
2023/08/15 04:22:38;;;;;;;10.20;6.00;;;20.20;99.90;;;;;;4996841;28;20113;-67
2023/08/15 04:25:06;;;;;;;8.98;5.32;;;20.30;99.90;;;;;;4996456;28;20029;-67
2023/08/15 04:27:32;;;;;;;10.85;5.85;;;20.20;99.90;;;;;;4999756;28;20022;-67
2023/08/15 04:29:57;;;;;;;10.88;5.15;;;20.20;99.90;;;;;;5000255;28;20045;-67
2023/08/15 04:32:23;;;;;;;9.77;4.95;;;20.40;99.90;;;;;;4999539;28;20027;-67
2023/08/15 04:34:48;;;;;;;12.20;4.35;;;20.40;99.90;;;;;;5000398;28;20026;-67
2023/08/15 04:37:14;;;;;;;8.05;4.97;;;20.60;99.90;;;;;;4999269;28;20050;-67
2023/08/15 04:39:39;;;;;;;10.30;5.53;;;20.60;99.90;;;;;;4999565;28;20037;-67
2023/08/15 04:42:05;;;;;;;9.98;5.65;;;20.40;99.90;;;;;;4999924;28;20026;-67
2023/08/15 04:44:31;;;;;;;10.65;5.20;;;20.30;99.90;;;;;;4999643;28;20022;-67
2023/08/15 04:46:56;;;;;;;10.75;5.30;;;20.20;99.90;;;;;;4999068;28;20019;-67
2023/08/15 04:49:22;;;;;;;9.52;5.53;;;20.10;99.90;;;;;;5000348;28;20027;-67
2023/08/15 04:51:47;;;;;;;9.23;5.18;;;20.20;99.90;;;;;;4999476;28;20065;-67
2023/08/15 04:54:13;;;;;;;10.82;5.82;;;20.10;99.90;;;;;;4999037;28;20030;-67
2023/08/15 04:56:38;;;;;;;10.93;6.00;;;20.20;99.90;;;;;;4999959;28;20129;-65
2023/08/15 04:59:04;;;;;;;17.02;5.28;;;20.20;99.90;;;;;;4999276;28;20028;-65
2023/08/15 05:01:29;;;;;;;11.93;5.70;;;20.20;99.90;;;;;;4999188;28;20040;-65
2023/08/15 05:03:55;;;;;;;13.60;5.60;;;20.10;99.90;;;;;;4998814;28;20031;-65
2023/08/15 05:06:20;;;;;;;9.52;6.30;;;20.20;99.90;;;;;;4998809;28;20058;-65
2023/08/15 05:08:46;;;;;;;10.30;5.53;;;20.20;99.90;;;;;;4999782;28;20044;-65
2023/08/15 05:11:11;;;;;;;18.55;6.90;;;20.20;99.90;;;;;;4999080;28;20022;-65
2023/08/15 05:13:37;;;;;;;10.20;5.28;;;20.30;99.90;;;;;;4999657;28;20076;-66
2023/08/15 05:16:03;;;;;;;14.60;6.85;;;20.30;99.90;;;;;;4999575;28;20026;-65
2023/08/15 05:18:28;;;;;;;19.00;8.50;;;20.50;99.90;;;;;;4999766;28;20030;-65
2023/08/15 05:20:54;;;;;;;11.73;5.70;;;20.50;99.90;;;;;;4998533;28;20034;-65
2023/08/15 05:23:19;;;;;;;8.82;5.90;;;20.40;99.90;;;;;;4998739;28;20030;-65
2023/08/15 05:25:46;;;;;;;12.38;5.93;;;20.30;99.90;;;;;;4998509;28;20033;-65
2023/08/15 05:28:11;;;;;;;9.55;5.32;;;20.10;99.90;;;;;;4999175;28;20019;-65
2023/08/15 05:30:37;;;;;;;14.45;7.18;;;20.10;99.90;;;;;;4998541;28;20023;-65
2023/08/15 05:33:03;;;;;;;13.27;6.88;;;19.90;99.90;;;;;;4998440;28;20033;-66
2023/08/15 05:35:29;;;;;;;12.80;6.90;;;19.90;99.90;;;;;;4998531;28;20033;-66
2023/08/15 05:37:55;;;;;;;16.83;6.65;;;19.90;99.90;;;;;;4997867;28;20138;-66
2023/08/15 05:40:21;;;;;;;15.63;6.95;;;19.80;99.90;;;;;;4998941;28;20042;-66
2023/08/15 05:42:47;;;;;;;13.15;7.18;;;19.70;99.90;;;;;;4998159;28;20070;-66
2023/08/15 05:45:13;;;;;;;11.23;6.50;;;19.70;99.90;;;;;;4998377;28;20018;-66
2023/08/15 05:47:38;;;;;;;13.30;6.90;;;19.80;99.90;;;;;;4998062;28;20176;-66
2023/08/15 05:50:04;;;;;;;17.00;6.40;;;19.80;99.90;;;;;;4998066;28;20026;-66
2023/08/15 05:52:30;;;;;;;18.13;6.10;;;19.80;99.90;;;;;;4998274;28;20053;-66
2023/08/15 05:54:55;;;;;;;11.30;5.80;;;19.90;99.90;;;;;;4997888;28;20026;-66
2023/08/15 05:57:23;;;;;;;13.73;5.63;;;20.00;99.90;;;;;;4998693;28;20065;-67
2023/08/15 05:59:48;;;;;;;14.30;5.78;;;20.00;99.90;;;;;;4998770;28;20038;-66
2023/08/15 06:02:14;;;;;;;7.00;5.50;;;20.20;99.90;;;;;;4997768;28;20026;-66
2023/08/15 06:04:40;;;;;;;15.75;6.15;;;20.50;99.90;;;;;;4998697;28;20089;-66
2023/08/15 06:07:06;;;;;;;9.43;5.53;;;20.60;99.90;;;;;;4998268;28;20049;-67
2023/08/15 06:09:32;;;;;;;12.02;5.57;;;20.70;99.90;;;;;;4997716;28;20094;-67
2023/08/15 06:11:58;;;;;;;11.15;4.70;;;20.90;99.90;;;;;;4997665;28;20037;-66
2023/08/15 06:14:24;;;;;;;8.88;5.05;;;21.10;99.90;;;;;;4998930;28;20023;-66
2023/08/15 06:16:49;;;;;;;9.25;4.50;;;21.30;99.90;;;;;;4997468;28;20164;-66
2023/08/15 06:19:15;;;;;;;10.57;4.50;;;21.30;99.90;;;;;;4997465;28;20026;-66
2023/08/15 06:21:43;;;;;;;10.45;4.22;;;21.60;99.90;;;;;;4997413;28;20108;-66
2023/08/15 06:24:10;;;;;;;9.35;4.57;;;21.60;99.90;;;;;;4997765;28;20150;-66
2023/08/15 06:26:36;;;;;;;9.00;4.55;;;21.60;99.90;;;;;;4998021;28;20088;-66
2023/08/15 06:29:05;;;;;;;10.82;5.63;;;21.60;99.90;;;;;;4998335;28;20030;-66
2023/08/15 06:31:35;;;;;;;15.48;5.40;;;21.60;99.90;;;;;;4998096;28;20113;-66
2023/08/15 06:34:02;;;;;;;8.63;5.57;;;21.60;99.90;;;;;;4997174;28;20018;-66
2023/08/15 06:36:28;;;;;;;9.55;4.70;;;21.50;99.90;;;;;;4997020;28;20022;-67
2023/08/15 06:38:53;;;;;;;10.68;5.03;;;21.40;99.90;;;;;;4997935;28;20121;-66
2023/08/15 06:41:19;;;;;;;6.07;4.43;;;21.40;99.90;;;;;;4997968;28;20082;-66
2023/08/15 06:43:45;;;;;;;6.40;4.25;;;21.50;99.90;;;;;;4997032;28;20045;-67
2023/08/15 06:46:11;;;;;;;8.80;5.07;;;21.60;99.90;;;;;;4998209;28;20053;-66
2023/08/15 06:48:37;;;;;;;12.48;4.32;;;21.70;99.90;;;;;;4996455;28;20026;-66
2023/08/15 06:51:03;;;;;;;4.75;3.83;;;21.60;99.90;;;;;;4997873;28;20026;-66
2023/08/15 06:53:32;;;;;;;4.90;3.60;;;21.50;99.90;;;;;;4997853;28;20190;-66
2023/08/15 06:55:58;;;;;;;9.40;4.22;;;21.50;99.90;;;;;;4996897;28;20026;-67
2023/08/15 06:58:24;;;;;;;7.05;3.70;;;21.70;99.90;;;;;;4997930;28;20082;-67
2023/08/15 07:00:49;;;;;;;7.43;4.00;;;21.90;99.90;;;;;;4996870;28;20038;-66
2023/08/15 07:03:16;;;;;;;10.07;3.38;;;21.90;99.90;;;;;;4997202;28;20014;-67
2023/08/15 07:05:42;;;;;;;7.97;3.30;;;22.00;99.90;;;;;;4997974;28;20033;-66
2023/08/15 07:08:08;;;;;;;8.93;2.85;;;22.20;99.90;;;;;;4997519;28;20023;-66
2023/08/15 07:10:34;;;;;;;6.13;3.30;;;22.40;99.90;;;;;;4996946;28;20049;-66
2023/08/15 07:13:00;;;;;;;6.20;4.00;;;22.60;99.90;;;;;;4997641;28;20030;-66
2023/08/15 07:15:26;;;;;;;5.38;2.58;;;22.50;99.90;;;;;;4997030;28;20033;-66
2023/08/15 07:17:51;;;;;;;5.85;3.15;;;22.60;99.90;;;;;;4996537;28;20032;-67
2023/08/15 07:20:17;;;;;;;7.00;3.08;;;22.60;99.90;;;;;;4996604;28;20031;-66
2023/08/15 07:22:43;;;;;;;6.20;3.10;;;22.40;99.90;;;;;;4997523;28;20022;-66
2023/08/15 07:25:10;;;;;;;6.15;2.90;;;22.30;99.90;;;;;;4997715;28;20026;-67
2023/08/15 07:27:36;;;;;;;9.68;2.58;;;22.30;99.90;;;;;;4997570;28;20019;-66
2023/08/15 07:30:02;;;;;;;4.03;2.50;;;22.40;99.90;;;;;;4996515;28;20050;-67
2023/08/15 07:32:28;;;;;;;5.10;2.83;;;22.40;99.90;;;;;;4996803;28;20026;-67
2023/08/15 07:34:54;;;;;;;5.15;2.47;;;22.40;99.90;;;;;;4996518;28;20161;-66
2023/08/15 07:37:20;;;;;;;5.55;2.42;;;22.40;99.90;;;;;;4997362;28;20049;-66
2023/08/15 07:39:55;;;;;;;3.25;2.47;;;22.30;99.90;;;;;;4997285;28;20026;-66
2023/08/15 07:42:20;;;;;;;3.95;2.28;;;22.40;99.90;;;;;;4996476;28;20037;-67
2023/08/15 07:44:47;;;;;;;4.30;2.53;;;22.40;99.90;;;;;;4996470;28;20023;-66
2023/08/15 07:47:12;;;;;;;3.30;2.25;;;22.50;99.90;;;;;;4997215;28;20018;-69
2023/08/15 07:49:38;;;;;;;5.88;2.00;;;22.80;99.90;;;;;;4997293;28;20037;-67
2023/08/15 07:52:04;;;;;;;2.92;2.22;;;23.00;99.90;;;;;;4996601;28;20030;-67
2023/08/15 07:54:30;;;;;;;3.83;2.53;;;23.00;99.90;;;;;;4997271;28;20031;-67
2023/08/15 07:56:55;;;;;;;3.92;2.03;;;23.10;99.90;;;;;;4996435;28;20072;-67
2023/08/15 07:59:21;;;;;;;3.70;2.05;;;23.20;99.90;;;;;;4998119;28;20034;-67
2023/08/15 08:01:47;;;;;;;5.18;2.03;;;23.10;99.90;;;;;;5000105;28;20037;-67
2023/08/15 08:04:12;;;;;;;4.10;1.88;;;23.10;99.90;;;;;;5001002;28;20062;-66
2023/08/15 08:06:38;;;;;;;6.75;2.03;;;23.00;99.90;;;;;;5000949;28;20042;-66
2023/08/15 08:09:05;;;;;;;5.03;1.92;;;23.00;99.90;;;;;;5000759;28;20045;-67
2023/08/15 08:11:31;;;;;;;4.03;1.95;;;22.90;99.90;;;;;;5000721;28;20019;-67
2023/08/15 08:13:56;;;;;;;3.47;1.98;;;23.00;99.90;;;;;;5001110;28;20033;-67
2023/08/15 08:16:22;;;;;;;2.50;2.13;;;23.00;99.90;;;;;;5000514;28;20022;-67
2023/08/15 08:18:47;;;;;;;3.53;2.10;;;23.00;99.90;;;;;;5000271;28;20023;-67
2023/08/15 08:21:13;;;;;;;4.70;1.83;;;23.10;99.90;;;;;;5000102;28;20068;-67
2023/08/15 08:23:38;;;;;;;5.82;2.08;;;23.20;99.90;;;;;;4999751;28;20022;-67
2023/08/15 08:26:04;;;;;;;4.32;2.20;;;23.40;99.90;;;;;;5000986;28;20031;-67
2023/08/15 08:28:30;;;;;;;2.10;1.63;;;23.60;99.90;;;;;;5000420;28;20038;-67
2023/08/15 08:30:56;;;;;;;4.30;1.80;;;23.80;99.90;;;;;;5000754;28;20030;-67
2023/08/15 08:33:21;;;;;;;3.03;2.10;;;23.90;99.90;;;;;;5000793;28;20023;-67
2023/08/15 08:35:47;;;;;;;3.03;1.88;;;23.90;99.90;;;;;;4999624;28;20054;-67
2023/08/15 08:38:12;;;;;;;2.72;1.63;;;24.10;99.90;;;;;;4999642;28;20057;-67
2023/08/15 08:40:39;;;;;;;5.05;1.73;;;24.00;99.90;;;;;;5000206;28;20038;-67
2023/08/15 08:43:05;;;;;;;5.00;1.90;;;24.10;99.90;;;;;;5000110;28;20022;-67
2023/08/15 08:45:32;;;;;;;4.63;2.20;;;24.00;99.90;;;;;;4999238;28;20077;-67
2023/08/15 08:47:58;;;;;;;2.72;2.00;;;23.90;99.90;;;;;;5000170;28;20034;-67
2023/08/15 08:50:26;;;;;;;4.13;1.73;;;24.00;99.90;;;;;;5000050;28;20022;-67
2023/08/15 08:52:52;;;;;;;4.82;1.60;;;24.10;99.90;;;;;;4999299;28;20036;-67
2023/08/15 08:55:21;;;;;;;4.55;1.90;;;24.10;99.90;;;;;;4999670;28;20027;-67
2023/08/15 08:57:55;;;;;;;3.58;1.60;;;24.30;99.90;;;;;;5000173;28;20026;-67
2023/08/15 09:00:29;;;;;;;3.75;1.42;;;24.40;99.90;;;;;;4999830;28;20034;-67
2023/08/15 09:02:56;;;;;;;2.95;1.60;;;24.50;99.90;;;;;;4999074;28;20031;-67
2023/08/15 09:05:22;;;;;;;7.32;3.05;;;24.60;99.90;;;;;;5000358;28;20026;-67
2023/08/15 09:07:48;;;;;;;2.40;1.40;;;24.60;99.90;;;;;;4999227;28;20076;-67
2023/08/15 09:10:14;;;;;;;2.90;1.67;;;24.80;99.90;;;;;;4999166;28;20072;-67
2023/08/15 09:12:40;;;;;;;3.33;1.58;;;25.00;99.90;;;;;;4998507;28;20030;-67
2023/08/15 09:15:07;;;;;;;4.28;1.38;;;25.00;99.90;;;;;;4998844;28;20032;-67
2023/08/15 09:17:33;;;;;;;3.22;1.60;;;25.00;99.90;;;;;;4998511;28;20084;-67
2023/08/15 09:20:13;;;;;;;2.85;1.95;;;25.20;99.90;;;;;;4998859;28;20058;-67
2023/08/15 09:22:41;;;;;;;2.95;1.52;;;25.20;99.90;;;;;;4998694;28;20018;-67
2023/08/15 09:25:07;;;;;;;1.40;1.20;;;25.40;99.90;;;;;;4998447;28;20027;-67
2023/08/15 09:27:34;;;;;;;2.05;1.13;;;25.50;99.90;;;;;;4998930;28;20069;-67
2023/08/15 09:30:08;;;;;;;2.55;1.35;;;25.70;99.90;;;;;;4998456;28;20102;-67
2023/08/15 09:32:33;;;;;;;2.25;1.20;;;25.90;99.90;;;;;;4999915;28;20030;-67
2023/08/15 09:34:59;;;;;;;4.53;1.23;;;25.90;99.90;;;;;;4998494;28;20125;-67
2023/08/15 09:37:25;;;;;;;2.78;1.50;;;25.90;99.90;;;;;;4999035;28;20038;-67
2023/08/15 09:39:51;;;;;;;1.83;1.13;;;26.00;99.90;;;;;;4999017;28;20026;-67
2023/08/15 09:42:20;;;;;;;1.25;1.00;;;25.90;99.90;;;;;;4998219;28;20023;-67
2023/08/15 09:44:46;;;;;;;2.88;1.17;;;26.10;99.90;;;;;;4999618;28;20161;-68
2023/08/15 09:47:13;;;;;;;2.42;1.08;;;26.30;99.90;;;;;;4999026;28;20019;-67
2023/08/15 09:49:39;;;;;;;1.10;1.00;;;26.60;99.90;;;;;;4999118;28;20029;-67
2023/08/15 09:52:06;;;;;;;2.22;1.30;;;26.40;99.90;;;;;;4998010;28;20045;-67
2023/08/15 09:54:34;;;;;;;2.08;1.20;;;26.40;99.90;;;;;;4998371;28;20026;-67
2023/08/15 09:57:00;;;;;;;2.60;1.10;;;26.30;99.90;;;;;;4998862;28;20054;-67
2023/08/15 09:59:25;;;;;;;6.35;1.77;;;26.40;99.90;;;;;;4998265;28;20026;-67
2023/08/15 10:01:52;;;;;;;2.92;1.02;;;26.50;99.90;;;;;;4998851;28;20026;-67
2023/08/15 10:04:22;;;;;;;1.65;1.20;;;26.40;99.90;;;;;;4997917;28;20077;-67
2023/08/15 10:06:49;;;;;;;1.50;1.30;;;26.30;99.90;;;;;;4997945;28;20026;-67
2023/08/15 10:09:15;;;;;;;1.75;0.75;;;26.30;99.90;;;;;;4998731;28;20133;-67
2023/08/15 10:11:44;;;;;;;1.48;1.02;;;26.60;99.90;;;;;;4998552;28;20061;-67
2023/08/15 10:14:14;;;;;;;1.38;1.05;;;26.80;99.90;;;;;;4998550;28;20029;-67
2023/08/15 10:16:39;;;;;;;6.20;1.00;;;27.20;99.90;;;;;;4998482;28;20093;-67
2023/08/15 10:19:08;;;;;;;2.13;1.00;;;27.30;99.90;;;;;;4997550;28;20058;-67
2023/08/15 10:21:51;;;;;;;1.58;1.10;;;27.20;99.90;;;;;;4997472;28;20022;-67
2023/08/15 10:24:16;;;;;;;1.83;1.00;;;27.20;99.90;;;;;;4996723;28;20053;-67
2023/08/15 10:26:43;;;;;;;2.75;1.27;;;27.40;99.90;;;;;;4998273;28;20058;-67
2023/08/15 10:29:08;;;;;;;1.92;0.90;;;27.40;99.90;;;;;;4997491;28;20045;-67
2023/08/15 10:31:39;;;;;;;1.10;0.93;;;27.50;99.90;;;;;;4997421;28;20026;-67
2023/08/15 10:34:08;;;;;;;1.92;1.00;;;27.60;99.90;;;;;;4997875;28;20105;-67
2023/08/15 10:36:34;;;;;;;4.85;0.95;;;27.50;99.90;;;;;;4997886;28;20035;-67
2023/08/15 10:39:07;;;;;;;1.73;0.80;;;27.60;99.90;;;;;;4997140;28;20041;-67
2023/08/15 10:41:37;;;;;;;1.38;0.85;;;28.00;99.90;;;;;;4998108;28;20112;-67
2023/08/15 10:44:07;;;;;;;3.63;0.90;;;28.30;99.90;;;;;;4997073;28;20027;-67
2023/08/15 10:46:35;;;;;;;2.28;0.90;;;29.20;99.90;;;;;;4998156;28;20117;-67
2023/08/15 10:49:11;;;;;;;2.58;0.90;;;29.90;99.90;;;;;;4997054;28;20104;-67
2023/08/15 10:51:38;;;;;;;2.03;0.90;;;30.40;99.90;;;;;;4997917;28;20168;-68
2023/08/15 10:54:06;;;;;;;2.22;1.05;;;30.60;99.90;;;;;;4996918;28;20030;-67
2023/08/15 10:56:33;;;;;;;1.10;1.00;;;31.20;99.90;;;;;;4996872;28;20033;-67
2023/08/15 10:59:02;;;;;;;1.17;1.08;;;31.30;99.90;;;;;;4996720;28;20022;-67
2023/08/15 11:01:28;;;;;;;2.50;0.90;;;31.00;99.90;;;;;;4996872;28;20031;-67
2023/08/15 11:03:56;;;;;;;1.73;0.90;;;30.70;99.90;;;;;;4997160;28;20018;-67
2023/08/15 11:06:22;;;;;;;0.70;0.70;;;30.20;99.90;;;;;;4997446;28;20026;-67
2023/08/15 11:08:50;;;;;;;2.42;1.23;;;30.40;99.90;;;;;;4997616;28;20026;-68
2023/08/15 11:11:16;;;;;;;3.42;1.70;;;30.80;99.90;;;;;;4996692;28;20034;-67
2023/08/15 11:13:46;;;;;;;2.05;1.30;;;31.70;99.90;;;;;;4997743;28;20034;-68
2023/08/15 11:16:20;;;;;;;2.28;1.20;;;32.10;99.90;;;;;;4996884;28;20026;-67
2023/08/15 11:18:46;;;;;;;1.70;1.23;;;32.60;99.90;;;;;;4997656;28;20034;-67
2023/08/15 11:21:13;;;;;;;2.63;1.13;;;32.50;99.90;;;;;;4997442;28;20050;-67
2023/08/15 11:23:39;;;;;;;1.88;0.95;;;32.20;99.90;;;;;;4997523;28;20113;-67
2023/08/15 11:26:10;;;;;;;1.42;1.27;;;31.10;99.90;;;;;;4997619;28;20049;-67
2023/08/15 11:28:37;;;;;;;1.27;0.90;;;31.00;99.90;;;;;;4996806;28;20023;-67
2023/08/15 11:31:13;;;;;;;4.20;1.10;;;30.70;99.90;;;;;;4997036;28;20029;-67
2023/08/15 11:33:39;;;;;;;1.30;1.10;;;30.40;99.90;;;;;;4996603;28;20038;-68
2023/08/15 11:36:07;;;;;;;2.78;1.27;;;29.90;99.90;;;;;;5001334;28;20022;-67
2023/08/15 11:38:33;;;;;;;3.83;1.83;;;29.60;99.90;;;;;;5000882;28;20125;-67
2023/08/15 11:41:01;;;;;;;2.25;1.10;;;29.30;99.90;;;;;;5000508;28;20049;-67
2023/08/15 11:43:27;;;;;;;2.10;1.40;;;29.30;99.90;;;;;;5001120;28;20026;-67
2023/08/15 11:45:53;;;;;;;5.53;1.33;;;29.20;99.90;;;;;;5000679;28;20065;-67
2023/08/15 11:48:18;;;;;;;2.03;1.70;;;28.90;99.90;;;;;;5000801;28;20030;-67
2023/08/15 11:50:44;;;;;;;3.70;1.58;;;28.70;99.90;;;;;;5001178;28;20033;-67
2023/08/15 11:53:13;;;;;;;3.50;1.80;;;28.50;99.90;;;;;;5001100;28;20023;-67
2023/08/15 11:55:39;;;;;;;2.83;1.85;;;28.40;99.90;;;;;;5000568;28;20117;-68
2023/08/15 11:58:20;;;;;;;1.55;1.45;;;28.20;99.90;;;;;;5000664;28;20117;-69
2023/08/15 12:00:46;;;;;;;5.53;1.80;;;28.00;99.90;;;;;;5000195;28;20054;-68
2023/08/15 12:03:11;;;;;;;3.05;2.42;;;27.70;99.90;;;;;;5001194;28;20065;-68
2023/08/15 12:05:38;;;;;;;3.85;2.17;;;27.30;99.90;;;;;;5001234;28;20049;-68
2023/08/15 12:08:03;;;;;;;2.67;2.08;;;26.50;99.90;;;;;;5000885;28;20018;-68
2023/08/15 12:10:30;;;;;;;4.03;2.58;;;26.10;99.90;;;;;;5000419;28;20113;-68
2023/08/15 12:12:56;;;;;;;5.95;3.03;;;25.80;99.90;;;;;;5000021;28;20030;-69
2023/08/15 12:15:21;;;;;;;8.40;2.90;;;25.40;99.90;;;;;;5000017;28;20045;-69
2023/08/15 12:17:47;;;;;;;6.40;2.97;;;25.10;99.90;;;;;;5000514;28;20034;-68
2023/08/15 12:20:14;;;;;;;7.65;3.08;;;24.80;99.90;;;;;;5001151;28;20030;-68
2023/08/15 12:22:40;;;;;;;9.85;3.25;;;24.70;99.90;;;;;;4999836;28;20018;-68
2023/08/15 12:25:09;;;;;;;10.75;4.20;;;24.40;99.90;;;;;;5000594;28;20027;-68
2023/08/15 12:27:36;;;;;;;7.47;3.13;;;24.40;99.90;;;;;;4999716;28;20018;-68
2023/08/15 12:30:02;;;;;;;6.78;2.63;;;24.30;99.90;;;;;;4999560;28;20033;-68
2023/08/15 12:32:28;;;;;;;4.03;2.50;;;24.30;99.90;;;;;;4999477;28;20121;-68
2023/08/15 12:34:54;;;;;;;6.28;2.75;;;24.10;99.90;;;;;;5000776;28;20064;-68
2023/08/15 12:37:19;;;;;;;7.93;3.65;;;24.10;99.90;;;;;;5000585;28;20050;-68
2023/08/15 12:39:45;;;;;;;6.35;4.20;;;24.10;99.90;;;;;;4999409;28;20033;-69